Bei Facebook empfehlenBei Twitter postenGoogle plusPinterest

Das Wetter im Erzgebirge am 12.01.2016

Wetter und Klima am 12.01.2016 Holzhau im Erzgebirge (630m ü.NN)
Letzte gemessene Temperatur und Uhrzeit der Messung23:45:00 Uhr0.60 °C
Temperatur (Maximum / Höchstwert) und Uhrzeit der Messung00:15:00 Uhr2.40 °C
Temperatur (Minimum / Tiefstwert) und Uhrzeit der Messung21:45:00-0.20 °C
Errechneter Absolutwert der Temperaturschwankungen zwischen Tmin und Tmax des Tages2.60 K
Errechnete Tagesmitteltemperatur1.38229 °C
Gesamt - Niederschlag des Tages (in flüssiger Form)2.59 Liter / m²
Luftdruck (Maximum / Höchstwert) und Zeitpunkt der Messung23:15:00 Uhr997.40 hPa
Luftdruck (Minimum / Tiefstwert) und Zeitpunkt der Messung01:45:00 Uhr986.10 hPa
Errechneter Absolutwert der Luftdruckschwankungen des Tages11.30 hPa
Höchste gemessene Windgeschwindigkeit und Uhrzeit der Messung01:45:00 Uhr183.60 km/h
Errechnete Windhäufigkeit in Relation zu den Messwerten des Tages51.04167 %
Niedrigste Windkühle (Windchill) und Zeitpunkt der Messung01:45:00 Uhr-10.10 °C
Taupunkt (Maximum / Höchstwert) und Uhrzeit der Messung00:15:00 Uhr1.70 °C
Taupunkt (Minimum / Tiefstwert) und Uhrzeit der Messung21:45:00-1.30 °C
Anzahl der automatisch eingelesenen Messwerte 96

Detaillierte Wetter- und Klima- Messwerte für den 12.01.2016 in Holzhau im Erzgebirge (630m ü.NN)
ZeitTemperaturLuftdruckRel. LuftfeuchteWindWindrichtungWindchillTaupunktNiederschlag l/m²
23:45:000.60 °C997.20 hPa94.00 %-0.30 °C2.59
23:30:000.50 °C997.30 hPa94.00 %1.80 km/hW0.50 °C-0.40 °C2.59
23:15:000.40 °C997.40 hPa93.00 %-0.60 °C2.59
23:00:000.40 °C997.20 hPa93.00 %-0.60 °C2.59
22:45:000.40 °C997.00 hPa93.00 %1.80 km/hS0.40 °C-0.60 °C2.59
22:30:000.50 °C996.80 hPa94.00 %8.64 km/hWNW-2.30 °C-0.40 °C2.59
22:15:000.40 °C996.70 hPa94.00 %6.48 km/hW-1.80 °C-0.50 °C2.59
22:00:000.00 °C996.70 hPa94.00 %-0.90 °C2.59
21:45:00-0.20 °C996.60 hPa93.00 %16.20 km/hSW-4.90 °C-1.30 °C2.59
21:30:000.10 °C996.20 hPa93.00 %-0.90 °C2.59
21:15:00-0.10 °C996.10 hPa94.00 %1.44 km/hSW-0.10 °C-1.00 °C2.59
21:00:00-0.20 °C996.00 hPa93.00 %-1.30 °C2.59
20:45:00-0.20 °C995.90 hPa93.00 %-1.30 °C2.59
20:30:00-0.20 °C995.70 hPa93.00 %-1.30 °C2.59
20:15:00-0.10 °C995.60 hPa93.00 %-1.20 °C2.59
20:00:000.30 °C995.50 hPa93.00 %-0.70 °C2.59
19:45:000.60 °C995.60 hPa93.00 %3.24 km/hSW0.60 °C-0.40 °C2.59
19:30:000.90 °C995.50 hPa93.00 %-0.10 °C2.59
19:15:001.20 °C995.60 hPa93.00 %0.20 °C2.59
19:00:001.30 °C995.50 hPa93.00 %0.30 °C2.59
18:45:001.30 °C995.60 hPa93.00 %0.30 °C2.59
18:30:001.30 °C995.60 hPa93.00 %0.30 °C2.59
18:15:001.30 °C995.50 hPa93.00 %2.52 km/hW1.30 °C0.30 °C2.59
18:00:001.30 °C995.40 hPa93.00 %0.30 °C2.59
17:45:001.10 °C995.50 hPa93.00 %0.10 °C2.59
17:30:001.20 °C995.40 hPa93.00 %0.20 °C2.59
17:15:000.90 °C995.10 hPa93.00 %3.96 km/hSW0.90 °C-0.10 °C2.59
17:00:000.90 °C995.10 hPa93.00 %-0.10 °C2.59
16:45:001.20 °C994.90 hPa93.00 %0.20 °C2.59
16:30:001.30 °C994.70 hPa93.00 %0.30 °C2.59
16:15:001.30 °C994.60 hPa93.00 %0.30 °C2.59
16:00:001.30 °C994.30 hPa93.00 %1.44 km/hS1.30 °C0.30 °C2.59
15:45:001.50 °C994.20 hPa93.00 %0.50 °C2.59
15:30:001.80 °C994.20 hPa94.00 %0.90 °C2.59
15:15:001.80 °C994.00 hPa94.00 %4.32 km/hSW1.80 °C0.90 °C2.59
15:00:001.80 °C993.60 hPa94.00 %7.92 km/hSW-0.60 °C0.90 °C2.59
14:45:001.90 °C993.60 hPa94.00 %1.00 °C2.59
14:30:001.80 °C993.20 hPa94.00 %2.16 km/hWSW1.80 °C0.90 °C2.59
14:15:001.80 °C993.00 hPa94.00 %0.90 °C2.59
14:00:001.80 °C992.80 hPa94.00 %7.56 km/hWNW-0.50 °C0.90 °C2.59
13:45:001.60 °C992.60 hPa94.00 %0.70 °C2.59
13:30:001.50 °C992.50 hPa94.00 %0.60 °C2.59
13:15:001.40 °C992.20 hPa94.00 %0.50 °C2.59
13:00:001.50 °C992.30 hPa94.00 %0.60 °C2.07
12:45:001.40 °C992.20 hPa94.00 %0.50 °C2.07
12:30:001.30 °C991.90 hPa93.00 %0.30 °C2.07
12:15:001.40 °C991.90 hPa93.00 %0.40 °C2.07
12:00:001.50 °C991.80 hPa93.00 %11.16 km/hWNW-1.80 °C0.50 °C1.55
11:45:001.50 °C991.60 hPa93.00 %0.50 °C1.55
11:30:001.60 °C991.40 hPa94.00 %0.70 °C1.55
11:15:001.60 °C991.40 hPa93.00 %3.24 km/hW1.60 °C0.60 °C1.55
11:00:001.60 °C991.30 hPa93.00 %0.60 °C1.55
10:45:001.60 °C990.90 hPa94.00 %0.70 °C1.55
10:30:001.80 °C990.80 hPa94.00 %4.68 km/hNW1.80 °C0.90 °C1.55
10:15:001.80 °C990.60 hPa94.00 %3.60 km/hSW1.80 °C0.90 °C1.55
10:00:001.80 °C990.60 hPa94.00 %0.90 °C1.55
09:45:001.80 °C990.00 hPa94.00 %10.44 km/hNW-1.30 °C0.90 °C1.55
09:30:001.80 °C989.80 hPa94.00 %11.16 km/hWNW-1.40 °C0.90 °C1.55
09:15:001.60 °C989.30 hPa94.00 %2.52 km/hWNW1.60 °C0.70 °C1.55
09:00:001.80 °C989.10 hPa94.00 %7.92 km/hSW-0.60 °C0.90 °C1.55
08:45:001.80 °C988.90 hPa94.00 %2.88 km/hW1.80 °C0.90 °C1.55
08:30:001.80 °C988.60 hPa94.00 %4.32 km/hWNW1.80 °C0.90 °C1.55
08:15:001.80 °C988.30 hPa94.00 %12.96 km/hW-1.80 °C0.90 °C1.55
08:00:001.80 °C988.20 hPa94.00 %9.72 km/hN-1.10 °C0.90 °C1.55
07:45:001.80 °C988.10 hPa95.00 %14.76 km/hW-2.20 °C1.10 °C1.55
07:30:001.60 °C988.00 hPa95.00 %2.16 km/hW1.60 °C0.90 °C1.55
07:15:001.60 °C987.60 hPa95.00 %6.48 km/hW-0.40 °C0.90 °C1.55
07:00:001.60 °C987.40 hPa95.00 %6.12 km/hWNW-0.20 °C0.90 °C1.55
06:45:001.50 °C987.40 hPa95.00 %4.68 km/hWNW1.50 °C0.80 °C1.55
06:30:001.30 °C987.10 hPa94.00 %14.40 km/hSW-2.70 °C0.40 °C1.55
06:15:001.30 °C986.90 hPa94.00 %0.40 °C1.55
06:00:001.30 °C986.70 hPa94.00 %0.40 °C1.55
05:45:001.50 °C986.50 hPa94.00 %0.60 °C1.55
05:30:001.60 °C986.40 hPa94.00 %3.60 km/hNW1.60 °C0.70 °C1.55
05:15:001.40 °C986.30 hPa94.00 %15.48 km/hWSW-2.80 °C0.50 °C1.03
05:00:001.30 °C986.40 hPa94.00 %8.64 km/hW-1.40 °C0.40 °C1.03
04:45:001.30 °C986.40 hPa94.00 %6.48 km/hWNW-0.70 °C0.40 °C1.03
04:30:001.60 °C986.40 hPa94.00 %0.70 °C1.03
04:15:002.10 °C986.40 hPa94.00 %14.76 km/hSW-1.80 °C1.20 °C0.51
04:00:002.20 °C986.40 hPa94.00 %4.32 km/hWSW2.20 °C1.30 °C0.51
03:45:002.10 °C986.40 hPa94.00 %15.48 km/hWNW-1.90 °C1.20 °C0.51
03:30:002.10 °C986.50 hPa94.00 %9.00 km/hSW-0.60 °C1.20 °C0.51
03:15:002.10 °C986.20 hPa94.00 %1.20 °C0.51
03:00:001.90 °C986.40 hPa94.00 %1.00 °C0.51
02:45:002.10 °C986.40 hPa94.00 %1.44 km/hSW2.10 °C1.20 °C0.51
02:30:002.10 °C986.40 hPa94.00 %7.20 km/hWSW0.00 °C1.20 °C0.51
02:15:002.10 °C986.20 hPa94.00 %2.16 km/hWSW2.10 °C1.20 °C0.51
02:00:001.90 °C986.20 hPa94.00 %1.00 °C0.51
01:45:001.90 °C986.10 hPa94.00 %183.60 km/hW-10.10 °C1.00 °C0.51
01:30:001.90 °C986.20 hPa94.00 %2.88 km/hW1.90 °C1.00 °C 
01:15:002.00 °C986.30 hPa94.00 %9.72 km/hW-0.90 °C1.10 °C 
01:00:002.10 °C986.20 hPa94.00 %1.20 °C 
00:45:002.10 °C986.20 hPa94.00 %5.04 km/hWSW0.80 °C1.20 °C 
00:30:002.30 °C986.30 hPa94.00 %1.40 °C 
00:15:002.40 °C986.10 hPa95.00 %3.60 km/hWSW2.40 °C1.70 °C 
00:00:002.30 °C986.20 hPa95.00 %7.56 km/hW0.10 °C1.60 °C 

Permanenter Link zu dieser Seite: Wetter im Erzgebirge am 12.01.2016
Performance-Info: Die Erstellung der Seite / Statistik(en) / Tabelle(n) erforderte 5 Datenbankserver-Abfrage(n) und dauerte 97 Millisekunden. (Dieser Messwert ist von der Gesamt-Auslastung des Servers abhängig.)
Erzgebirge - Wetter | Erzgebirge - Wetter (Mobilgeräte) | Komplette Klimadatenbank